Time;durP1;ratioP1;P1;durP2;ratioP2;P2;SDS_P1;SDS_P2;PMS_P1;PMS_P2;Temp;Humidity;BMP_temperature;BMP_pressure;BME280_temperature;BME280_humidity;BME280_pressure;Samples;Min_cycle;Max_cycle;Signal;HPM_P1;HPM_P2
2022/01/01 00:01:46;;;;;;;56.70;32.92;;;;;;;11.52;100.00;102164.94;5266590;28;20676;-70
2022/01/01 00:04:18;;;;;;;55.20;30.15;;;;;;;11.50;100.00;102163.31;5273602;28;20140;-70
2022/01/01 00:06:49;;;;;;;47.00;25.20;;;;;;;11.54;100.00;102176.41;5268203;28;20028;-70
2022/01/01 00:09:21;;;;;;;42.22;21.70;;;;;;;11.51;100.00;102171.25;5270699;28;20070;-70
2022/01/01 00:11:52;;;;;;;44.33;22.13;;;;;;;11.55;100.00;102179.94;5266820;28;20029;-70
2022/01/01 00:14:24;;;;;;;48.00;24.20;;;;;;;11.56;100.00;102179.88;5266430;28;20421;-70
2022/01/01 00:16:55;;;;;;;49.90;24.52;;;;;;;11.53;100.00;102179.19;5271839;28;20024;-70
2022/01/01 00:19:27;;;;;;;49.05;21.60;;;;;;;11.54;100.00;102178.22;5265947;28;20115;-70
2022/01/01 00:22:00;;;;;;;42.17;22.10;;;;;;;11.54;100.00;102180.88;5263210;28;20027;-70
2022/01/01 00:24:31;;;;;;;42.83;21.00;;;;;;;11.58;100.00;102182.41;5266418;28;20033;-70
2022/01/01 00:27:02;;;;;;;38.38;19.15;;;;;;;11.56;100.00;102178.97;5269917;28;20063;-70
2022/01/01 00:29:34;;;;;;;43.55;20.90;;;;;;;11.52;100.00;102183.63;5265956;28;20036;-70
2022/01/01 00:32:05;;;;;;;40.20;19.85;;;;;;;11.53;100.00;102189.88;5273175;28;20028;-70
2022/01/01 00:34:37;;;;;;;41.45;18.17;;;;;;;11.55;100.00;102187.97;5278437;28;20047;-70
2022/01/01 00:37:08;;;;;;;38.00;16.90;;;;;;;11.54;100.00;102191.56;5262800;28;20451;-70
2022/01/01 00:39:39;;;;;;;42.50;21.67;;;;;;;11.53;100.00;102182.69;5267819;28;20056;-70
2022/01/01 00:42:11;;;;;;;41.22;22.38;;;;;;;11.53;100.00;102190.72;5277929;28;20485;-70
2022/01/01 00:44:42;;;;;;;33.80;18.27;;;;;;;11.53;100.00;102177.34;5257692;28;21795;-70
2022/01/01 00:47:13;;;;;;;34.53;15.68;;;;;;;11.57;100.00;102180.72;5257524;28;20409;-70
2022/01/01 00:49:45;;;;;;;33.67;17.95;;;;;;;11.51;100.00;102184.59;5260733;28;20021;-70
2022/01/01 00:52:16;;;;;;;35.65;16.50;;;;;;;11.50;100.00;102169.50;5256909;28;20075;-70
2022/01/01 00:54:47;;;;;;;28.90;14.68;;;;;;;11.51;100.00;102173.91;5257168;28;20025;-70
2022/01/01 00:57:19;;;;;;;34.50;13.98;;;;;;;11.52;100.00;102174.78;5260175;28;20059;-70
2022/01/01 00:59:50;;;;;;;31.08;14.65;;;;;;;11.50;100.00;102180.19;5265189;28;20041;-70
2022/01/01 01:02:22;;;;;;;39.08;21.75;;;;;;;11.49;100.00;102181.16;5258597;28;20054;-70
2022/01/01 01:04:53;;;;;;;49.58;35.22;;;;;;;11.48;100.00;102187.44;5261307;28;20032;-70
2022/01/01 01:07:24;;;;;;;47.38;32.05;;;;;;;11.49;100.00;102177.66;5265915;28;20085;-70
2022/01/01 01:09:56;;;;;;;38.58;22.38;;;;;;;11.49;100.00;102183.00;5268482;28;20422;-70
2022/01/01 01:12:37;;;;;;;33.85;15.43;;;;;;;11.50;100.00;102184.69;5264707;28;20031;-70
2022/01/01 01:15:11;;;;;;;29.75;12.88;;;;;;;11.47;100.00;102184.91;5262251;28;20120;-70
2022/01/01 01:17:46;;;;;;;;;;;;;;;11.57;100.00;102189.59;5264552;28;20081;-70
2022/01/01 01:20:18;;;;;;;;;;;;;;;11.57;100.00;102181.56;5270445;28;19924;-70
2022/01/01 01:22:50;;;;;;;28.33;12.40;;;;;;;11.53;100.00;102181.84;5255565;28;20271;-70
2022/01/01 01:25:22;;;;;;;32.65;12.60;;;;;;;11.49;100.00;102186.50;5259872;28;20035;-70
2022/01/01 01:27:54;;;;;;;33.08;15.48;;;;;;;11.53;100.00;102190.72;5258664;28;20074;-70
2022/01/01 01:30:25;;;;;;;37.40;20.42;;;;;;;11.51;100.00;102191.78;5263821;28;20050;-70
2022/01/01 01:32:56;;;;;;;39.33;17.55;;;;;;;11.50;100.00;102185.53;5260376;28;20028;-70
2022/01/01 01:35:28;;;;;;;34.92;17.58;;;;;;;11.49;100.00;102189.19;5258087;28;20509;-70
2022/01/01 01:37:59;;;;;;;67.82;37.95;;;;;;;11.51;100.00;102186.44;5252634;28;20035;-70
2022/01/01 01:40:31;;;;;;;43.83;23.75;;;;;;;11.48;100.00;102184.78;5268516;28;20031;-70
2022/01/01 01:43:09;;;;;;;39.45;22.33;;;;;;;11.37;100.00;102190.78;5265086;28;20363;-70
2022/01/01 01:45:42;;;;;;;40.28;16.95;;;;;;;11.39;100.00;102198.69;5273297;28;20103;-70
2022/01/01 01:48:13;;;;;;;29.17;15.15;;;;;;;11.38;100.00;102202.31;5273894;28;20115;-70
2022/01/01 01:50:45;;;;;;;36.92;15.10;;;;;;;11.38;100.00;102208.50;5264296;28;20024;-70
2022/01/01 01:53:16;;;;;;;34.00;14.07;;;;;;;11.40;100.00;102210.25;5265958;28;20060;-70
2022/01/01 01:55:48;;;;;;;32.85;13.80;;;;;;;11.39;100.00;102214.75;5263680;28;20028;-70
2022/01/01 01:58:20;;;;;;;42.80;20.65;;;;;;;11.40;100.00;102216.44;5263188;28;20025;-70
2022/01/01 02:01:20;;;;;;;41.65;17.38;;;;;;;11.46;100.00;102210.72;5274460;28;20053;-70
2022/01/01 02:03:54;;;;;;;32.83;15.00;;;;;;;11.40;100.00;102211.09;5281224;28;20070;-70
2022/01/01 02:06:26;;;;;;;26.10;13.75;;;;;;;11.46;100.00;102210.72;5271758;28;20040;-70
2022/01/01 02:08:57;;;;;;;39.17;20.02;;;;;;;11.49;100.00;102204.38;5268516;28;20028;-70
2022/01/01 02:11:30;;;;;;;51.63;27.02;;;;;;;11.40;100.00;102205.75;5268059;28;20087;-70
2022/01/01 02:14:09;;;;;;;50.85;26.33;;;;;;;11.36;100.00;102205.06;5266128;28;20037;-70
2022/01/01 02:19:30;;;;;;;28.23;13.77;;;;;;;11.49;100.00;102212.38;5266684;28;20036;-70
2022/01/01 02:22:04;;;;;;;26.77;13.30;;;;;;;11.43;100.00;102204.69;5265537;28;20420;-70
2022/01/01 02:24:35;;;;;;;31.50;13.60;;;;;;;11.48;100.00;102197.28;5260013;28;20031;-70
2022/01/01 02:27:08;;;;;;;31.17;13.63;;;;;;;11.44;100.00;102196.59;5263108;28;20370;-70
2022/01/01 02:29:39;;;;;;;25.67;13.30;;;;;;;11.43;100.00;102194.91;5266084;28;20017;-70
2022/01/01 02:32:15;;;;;;;27.10;13.90;;;;;;;11.43;100.00;102197.56;5263082;28;20029;-70
2022/01/01 02:34:46;;;;;;;27.50;13.98;;;;;;;11.48;100.00;102198.13;5266045;28;20376;-70
2022/01/01 02:37:17;;;;;;;28.75;14.35;;;;;;;11.44;100.00;102201.94;5266290;28;20453;-70
2022/01/01 02:39:50;;;;;;;26.38;13.50;;;;;;;11.48;100.00;102189.28;5270236;28;20029;-70
2022/01/01 02:42:22;;;;;;;28.45;14.30;;;;;;;11.47;100.00;102193.75;5274770;28;20041;-70
2022/01/01 02:44:54;;;;;;;28.70;13.88;;;;;;;11.50;100.00;102200.72;5273088;28;20249;-70
2022/01/01 02:47:26;;;;;;;25.27;13.45;;;;;;;11.50;100.00;102200.72;5271633;28;20039;-70
2022/01/01 02:49:57;;;;;;;34.10;14.95;;;;;;;11.52;100.00;102198.81;5264846;28;20473;-70
2022/01/01 02:52:28;;;;;;;32.72;15.13;;;;;;;11.47;100.00;102193.75;5267572;28;20086;-70
2022/01/01 02:54:59;;;;;;;27.75;13.68;;;;;;;11.51;100.00;102184.59;5267158;28;20036;-70
2022/01/01 02:57:31;;;;;;;21.67;13.43;;;;;;;11.48;100.00;102186.59;5270936;28;20130;-70
2022/01/01 03:00:04;;;;;;;26.65;14.00;;;;;;;11.49;100.00;102180.31;5262648;28;20077;-70
2022/01/01 03:02:35;;;;;;;30.33;14.63;;;;;;;11.44;100.00;102167.22;5267779;28;20497;-70
2022/01/01 03:05:07;;;;;;;26.10;15.18;;;;;;;11.51;100.00;102168.56;5282550;28;20125;-70
2022/01/01 03:07:39;;;;;;;28.80;14.65;;;;;;;11.48;100.00;102171.41;5279271;28;20051;-70
2022/01/01 03:10:10;;;;;;;23.60;14.10;;;;;;;11.40;100.00;102172.84;5267474;28;20087;-70
2022/01/01 03:12:41;;;;;;;30.20;14.52;;;;;;;11.48;100.00;102178.56;5276063;28;20089;-70
2022/01/01 03:15:13;;;;;;;30.55;15.63;;;;;;;11.45;100.00;102176.97;5270572;28;20814;-70
2022/01/01 03:17:44;;;;;;;29.52;14.63;;;;;;;11.46;100.00;102175.13;5272110;28;20052;-70
2022/01/01 03:20:15;;;;;;;27.77;14.43;;;;;;;11.52;100.00;102177.44;5272587;28;20032;-70
2022/01/01 03:22:46;;;;;;;25.30;13.35;;;;;;;11.48;100.00;102173.22;5279125;28;20052;-70
2022/01/01 03:25:18;;;;;;;26.70;13.07;;;;;;;11.49;100.00;102166.94;5273579;28;20094;-70
2022/01/01 03:27:49;;;;;;;27.75;13.32;;;;;;;11.46;100.00;102167.97;5267168;28;20036;-70
2022/01/01 03:30:20;;;;;;;27.90;12.60;;;;;;;11.50;100.00;102155.28;5273086;28;20301;-70
2022/01/01 03:32:51;;;;;;;27.30;12.73;;;;;;;11.46;100.00;102165.31;5273534;28;20147;-70
2022/01/01 03:35:23;;;;;;;26.77;12.50;;;;;;;11.46;100.00;102167.13;5260994;28;20070;-70
2022/01/01 03:37:54;;;;;;;25.48;12.93;;;;;;;11.45;100.00;102166.25;5266460;28;20040;-70
2022/01/01 03:40:25;;;;;;;22.60;12.10;;;;;;;11.50;100.00;102161.50;5268752;28;20031;-70
2022/01/01 03:42:57;;;;;;;26.52;12.20;;;;;;;11.43;100.00;102172.63;5275572;28;20079;-70
2022/01/01 03:45:28;;;;;;;22.27;11.98;;;;;;;11.43;100.00;102164.63;5268830;28;20040;-70
2022/01/01 03:47:59;;;;;;;25.17;11.60;;;;;;;11.34;100.00;102156.19;5276068;28;20040;-70
2022/01/01 03:50:31;;;;;;;22.02;11.38;;;;;;;11.40;100.00;102162.16;5264918;28;20490;-70
2022/01/01 03:53:02;;;;;;;25.30;10.60;;;;;;;11.33;100.00;102164.31;5276656;28;20533;-70
2022/01/01 03:55:33;;;;;;;22.27;10.45;;;;;;;11.36;100.00;102145.44;5281179;28;20133;-70
2022/01/01 03:58:05;;;;;;;23.83;11.10;;;;;;;11.31;100.00;102153.72;5275749;28;20020;-70
2022/01/01 04:00:39;;;;;;;21.73;10.18;;;;;;;11.40;100.00;102154.97;5262908;28;20381;-70
2022/01/01 04:03:12;;;;;;;26.35;9.35;;;;;;;11.39;100.00;102161.28;5269273;28;20123;-70
2022/01/01 04:05:45;;;;;;;20.33;9.93;;;;;;;11.41;100.00;102154.03;5265060;28;20036;-70
2022/01/01 04:08:17;;;;;;;22.13;9.48;;;;;;;11.39;100.00;102153.28;5276474;28;20032;-70
2022/01/01 04:10:48;;;;;;;18.63;9.63;;;;;;;11.34;100.00;102152.69;5285933;28;20051;-70
2022/01/01 04:13:19;;;;;;;19.75;8.98;;;;;;;11.35;100.00;102162.41;5276310;28;20028;-70
2022/01/01 04:15:50;;;;;;;21.05;9.10;;;;;;;11.34;100.00;102153.53;5275585;28;20396;-70
2022/01/01 04:18:38;;;;;;;19.75;9.13;;;;;;;11.32;100.00;102158.09;5272757;28;20025;-70
2022/01/01 04:21:10;;;;;;;18.33;8.75;;;;;;;11.28;100.00;102151.22;5263327;28;20042;-70
2022/01/01 04:23:44;;;;;;;20.92;8.95;;;;;;;11.32;100.00;102155.44;5275487;28;20412;-70
2022/01/01 04:26:15;;;;;;;18.45;8.43;;;;;;;11.33;100.00;102150.94;5288716;28;20128;-70
2022/01/01 04:28:47;;;;;;;21.35;8.40;;;;;;;11.38;100.00;102148.88;5264082;28;20812;-70
2022/01/01 04:31:18;;;;;;;17.20;8.23;;;;;;;11.37;100.00;102153.34;5268616;28;20032;-70
2022/01/01 04:33:49;;;;;;;15.77;8.02;;;;;;;11.40;100.00;102163.00;5276098;28;20016;-70
2022/01/01 04:36:21;;;;;;;17.30;8.02;;;;;;;11.40;100.00;102163.00;5277257;28;20040;-70
2022/01/01 04:38:53;;;;;;;19.63;7.95;;;;;;;11.43;100.00;102160.16;5261505;28;20033;-70
2022/01/01 04:41:24;;;;;;;16.55;7.97;;;;;;;11.42;100.00;102157.56;5279260;28;20077;-70
2022/01/01 04:43:55;;;;;;;18.67;7.55;;;;;;;11.42;100.00;102169.09;5271394;28;20024;-70
2022/01/01 04:46:26;;;;;;;19.67;9.00;;;;;;;11.40;100.00;102165.66;5273523;28;20032;-70
2022/01/01 04:48:58;;;;;;;20.85;7.95;;;;;;;11.41;100.00;102167.41;5266377;28;20044;-70
2022/01/01 04:51:29;;;;;;;22.15;8.55;;;;;;;11.42;100.00;102166.44;5273536;28;20074;-70
2022/01/01 04:54:02;;;;;;;17.60;7.95;;;;;;;11.45;100.00;102178.75;5270663;28;20561;-70
2022/01/01 04:56:34;;;;;;;19.35;8.25;;;;;;;11.45;100.00;102181.41;5276375;28;20023;-70
2022/01/01 04:59:05;;;;;;;15.95;7.70;;;;;;;11.42;100.00;102176.28;5267141;28;20474;-70
2022/01/01 05:01:37;;;;;;;18.40;7.95;;;;;;;11.46;100.00;102173.31;5264947;28;20031;-70
2022/01/01 05:04:09;;;;;;;17.75;8.27;;;;;;;11.45;100.00;102176.97;5269830;28;20029;-70
2022/01/01 05:06:41;;;;;;;18.55;8.07;;;;;;;11.42;100.00;102162.91;5274783;28;20539;-70
2022/01/01 05:09:13;;;;;;;20.30;8.48;;;;;;;11.43;100.00;102181.53;5267972;28;20036;-70
2022/01/01 05:11:44;;;;;;;18.50;7.82;;;;;;;11.41;100.00;102171.88;5276688;28;20081;-70
2022/01/01 05:14:16;;;;;;;21.42;8.32;;;;;;;11.41;100.00;102182.56;5273621;28;20025;-70
2022/01/01 05:16:47;;;;;;;17.50;7.75;;;;;;;11.42;100.00;102179.81;5267080;28;20024;-70
2022/01/01 05:19:19;;;;;;;17.55;7.63;;;;;;;11.43;100.00;102184.22;5273554;28;20024;-70
2022/01/01 05:21:55;;;;;;;16.75;8.05;;;;;;;11.43;100.00;102186.88;5262286;28;20043;-70
2022/01/01 05:24:26;;;;;;;22.48;7.72;;;;;;;11.45;100.00;102198.34;5276605;28;20152;-70
2022/01/01 05:26:57;;;;;;;13.15;6.80;;;;;;;11.43;100.00;102186.00;5259920;28;20086;-70
2022/01/01 05:29:28;;;;;;;17.80;7.53;;;;;;;11.36;100.00;102186.34;5268912;28;20066;-70
2022/01/01 05:32:00;;;;;;;16.77;7.72;;;;;;;11.45;100.00;102186.75;5259498;28;20079;-70
2022/01/01 05:34:31;;;;;;;14.25;7.70;;;;;;;11.40;100.00;102187.03;5276713;28;20036;-70
2022/01/01 05:37:02;;;;;;;18.52;7.75;;;;;;;11.38;100.00;102186.28;5279280;28;20032;-70
2022/01/01 05:39:34;;;;;;;16.42;7.13;;;;;;;11.37;100.00;102187.22;5263441;28;20032;-70
2022/01/01 05:42:05;;;;;;;15.20;7.15;;;;;;;11.36;100.00;102186.34;5268799;28;20108;-70
2022/01/01 05:44:36;;;;;;;17.73;7.60;;;;;;;11.36;100.00;102188.19;5267380;28;20112;-70
2022/01/01 05:47:08;;;;;;;17.38;7.25;;;;;;;11.32;100.00;102186.63;5264911;28;20482;-70
2022/01/01 05:49:39;;;;;;;20.25;7.85;;;;;;;11.36;100.00;102188.19;5274827;28;20025;-70
2022/01/01 05:52:10;;;;;;;18.90;7.90;;;;;;;11.36;100.00;102182.84;5276928;28;20032;-70
2022/01/01 05:54:42;;;;;;;15.93;6.70;;;;;;;11.33;100.00;102183.00;5274144;28;20103;-70
2022/01/01 05:57:13;;;;;;;16.23;6.88;;;;;;;11.31;100.00;102184.91;5279626;28;20077;-70
2022/01/01 05:59:44;;;;;;;16.85;7.05;;;;;;;11.33;100.00;102180.34;5275665;28;20037;-70
2022/01/01 06:02:16;;;;;;;20.38;7.57;;;;;;;11.33;100.00;102177.66;5259999;28;20409;-70
2022/01/01 06:04:47;;;;;;;16.73;7.45;;;;;;;11.41;100.00;102174.53;5274687;28;20028;-70
2022/01/01 06:07:18;;;;;;;12.75;6.05;;;;;;;11.37;100.00;102176.53;5272662;28;20537;-70
2022/01/01 06:09:49;;;;;;;15.40;6.90;;;;;;;11.33;100.00;102159.84;5275509;28;20525;-70
2022/01/01 06:12:21;;;;;;;15.00;6.82;;;;;;;11.33;100.00;102166.97;5269501;28;20453;-70
2022/01/01 06:14:52;;;;;;;14.50;6.82;;;;;;;11.33;100.00;102166.97;5262940;28;20056;-70
2022/01/01 06:17:24;;;;;;;19.92;6.63;;;;;;;11.17;100.00;102167.00;5276776;28;20058;-70
2022/01/01 06:19:55;;;;;;;17.27;7.30;;;;;;;11.09;100.00;102164.78;5269818;28;20035;-70
2022/01/01 06:22:26;;;;;;;17.70;6.93;;;;;;;11.01;100.00;102161.69;5266395;28;20025;-70
2022/01/01 06:24:57;;;;;;;20.80;6.85;;;;;;;10.91;100.00;102166.72;5271461;28;20036;-70
2022/01/01 06:27:29;;;;;;;14.57;6.90;;;;;;;10.85;100.00;102161.69;5266436;28;20025;-70
2022/01/01 06:30:00;;;;;;;15.23;7.03;;;;;;;10.77;100.00;102170.13;5266395;28;20039;-70
2022/01/01 06:32:31;;;;;;;16.20;6.43;;;;;;;10.69;100.00;102171.53;5266540;28;20078;-70
2022/01/01 06:35:04;;;;;;;16.20;6.85;;;;;;;10.78;100.00;102173.69;5273732;28;20085;-70
2022/01/01 06:37:35;;;;;;;16.20;7.40;;;;;;;10.71;100.00;102173.16;5275571;28;20025;-70
2022/01/01 06:40:07;;;;;;;17.20;6.03;;;;;;;10.75;100.00;102176.50;5272827;28;20031;-70
2022/01/01 06:42:39;;;;;;;15.18;5.80;;;;;;;10.70;100.00;102174.13;5271381;28;20024;-70
2022/01/01 06:45:10;;;;;;;15.32;6.32;;;;;;;10.62;100.00;102180.81;5269277;28;20067;-70
2022/01/01 06:47:41;;;;;;;15.68;5.80;;;;;;;10.55;100.00;102181.16;5274473;28;20440;-70
2022/01/01 06:50:13;;;;;;;17.60;6.05;;;;;;;10.55;100.00;102173.16;5270079;28;20025;-70
2022/01/01 06:52:45;;;;;;;16.25;6.47;;;;;;;10.51;100.00;102174.28;5273680;28;20039;-70
2022/01/01 06:55:16;;;;;;;12.98;6.40;;;;;;;10.43;100.00;102170.28;5271005;28;20052;-70
2022/01/01 06:57:48;;;;;;;16.92;6.78;;;;;;;10.46;100.00;102175.47;5271589;28;20490;-70
2022/01/01 07:00:19;;;;;;;15.98;6.30;;;;;;;10.50;100.00;102185.88;5270490;28;20471;-70
2022/01/01 07:02:50;;;;;;;14.38;6.10;;;;;;;10.52;100.00;102185.78;5266209;28;20028;-70
2022/01/01 07:05:22;;;;;;;14.40;6.65;;;;;;;10.61;100.00;102182.63;5282700;28;20110;-70
2022/01/01 07:07:53;;;;;;;14.85;5.97;;;;;;;10.58;100.00;102190.78;5281493;28;20040;-70
2022/01/01 07:10:24;;;;;;;17.00;5.72;;;;;;;10.64;100.00;102195.78;5268844;28;20045;-70
2022/01/01 07:12:55;;;;;;;14.55;5.38;;;;;;;10.66;100.00;102204.59;5270918;28;20024;-70
2022/01/01 07:15:27;;;;;;;15.10;6.03;;;;;;;10.66;100.00;102207.28;5270322;28;20032;-70
2022/01/01 07:17:58;;;;;;;14.98;5.80;;;;;;;10.71;100.00;102210.53;5268017;28;20033;-70
2022/01/01 07:20:30;;;;;;;10.88;5.10;;;;;;;10.69;100.00;102209.75;5265412;28;21209;-70
2022/01/01 07:23:02;;;;;;;17.80;6.00;;;;;;;10.77;100.00;102207.50;5266749;28;20039;-70
2022/01/01 07:25:34;;;;;;;15.65;6.30;;;;;;;10.73;100.00;102197.94;5271497;28;20383;-70
2022/01/01 07:28:05;;;;;;;16.10;5.78;;;;;;;10.82;100.00;102199.25;5268165;28;20036;-70
2022/01/01 07:30:36;;;;;;;16.27;5.78;;;;;;;10.82;100.00;102201.94;5274563;28;21343;-70
2022/01/01 07:33:11;;;;;;;16.30;5.75;;;;;;;10.82;100.00;102211.75;5272302;28;20115;-70
2022/01/01 07:35:42;;;;;;;14.23;5.57;;;;;;;10.79;100.00;102210.09;5266510;28;20024;-70
2022/01/01 07:38:14;;;;;;;12.07;5.03;;;;;;;10.86;100.00;102215.97;5270111;28;20490;-70
2022/01/01 07:40:45;;;;;;;14.73;5.30;;;;;;;10.83;100.00;102214.31;5268887;28;20474;-70
2022/01/01 07:43:17;;;;;;;15.45;5.07;;;;;;;10.83;100.00;102224.16;5264804;28;20036;-70
2022/01/01 07:45:50;;;;;;;12.77;5.07;;;;;;;10.78;100.00;102222.59;5263866;28;20036;-70
2022/01/01 07:48:21;;;;;;;13.27;4.75;;;;;;;10.83;100.00;102229.47;5268812;28;20032;-70
2022/01/01 07:50:52;;;;;;;14.93;5.53;;;;;;;10.86;100.00;102224.84;5263714;28;20484;-70
2022/01/01 07:53:23;;;;;;;12.00;5.18;;;;;;;10.83;100.00;102229.47;5266597;28;20508;-70
2022/01/01 07:55:55;;;;;;;12.70;5.28;;;;;;;10.86;100.00;102229.31;5268630;28;20151;-70
2022/01/01 07:58:26;;;;;;;14.02;4.95;;;;;;;10.92;100.00;102226.31;5260330;28;20021;-70
2022/01/01 08:00:57;;;;;;;11.05;5.05;;;;;;;10.90;100.00;102231.72;5267976;28;20025;-70
2022/01/01 08:03:29;;;;;;;10.27;5.00;;;;;;;10.93;100.00;102231.56;5266939;28;20051;-70
2022/01/01 08:06:00;;;;;;;13.85;5.38;;;;;;;10.88;100.00;102225.59;5265195;28;20385;-70
2022/01/01 08:08:31;;;;;;;15.15;5.03;;;;;;;11.00;100.00;102224.06;5268708;28;20497;-70
2022/01/01 08:11:02;;;;;;;15.10;5.90;;;;;;;10.95;100.00;102232.34;5266850;28;20071;-70
2022/01/01 08:13:35;;;;;;;11.60;4.97;;;;;;;10.98;100.00;102234.81;5260951;28;20063;-70
2022/01/01 08:16:07;;;;;;;11.57;5.00;;;;;;;10.95;100.00;102232.34;5266825;28;20048;-70
2022/01/01 08:18:39;;;;;;;16.00;5.18;;;;;;;11.04;100.00;102232.75;5263033;28;20031;-70
2022/01/01 08:21:10;;;;;;;12.63;5.07;;;;;;;11.01;100.00;102232.94;5265258;28;20032;-70
2022/01/01 08:23:42;;;;;;;14.77;5.50;;;;;;;11.02;100.00;102232.84;5262272;28;20029;-70
2022/01/01 08:26:13;;;;;;;15.48;5.80;;;;;;;11.05;100.00;102232.69;5261368;28;20031;-70
2022/01/01 08:28:44;;;;;;;15.02;5.40;;;;;;;11.01;100.00;102239.16;5264208;28;20028;-70
2022/01/01 08:31:16;;;;;;;13.20;5.80;;;;;;;11.03;100.00;102239.06;5263044;28;20564;-70
2022/01/01 08:33:47;;;;;;;14.35;5.32;;;;;;;11.08;100.00;102234.31;5262764;28;20510;-70
2022/01/01 08:36:18;;;;;;;13.20;6.10;;;;;;;11.02;100.00;102240.00;5261498;28;20024;-70
2022/01/01 08:38:49;;;;;;;12.35;5.45;;;;;;;10.98;100.00;102240.16;5263388;28;20032;-70
2022/01/01 08:41:21;;;;;;;12.80;5.88;;;;;;;10.92;100.00;102234.31;5261307;28;20035;-70
2022/01/01 08:43:53;;;;;;;14.13;5.93;;;;;;;10.93;100.00;102242.25;5256591;28;20574;-70
2022/01/01 08:46:24;;;;;;;14.52;6.47;;;;;;;10.90;100.00;102233.53;5266802;28;20111;-70
2022/01/01 08:48:56;;;;;;;15.80;6.22;;;;;;;10.86;100.00;102234.66;5265324;28;20744;-70
2022/01/01 08:51:28;;;;;;;14.32;6.43;;;;;;;10.85;100.00;102243.59;5262050;28;20044;-70
2022/01/01 08:53:59;;;;;;;15.38;6.43;;;;;;;10.86;100.00;102248.03;5262893;28;20024;-70
2022/01/01 08:56:31;;;;;;;15.23;6.05;;;;;;;10.79;100.00;102253.66;5255350;28;20075;-70
2022/01/01 08:59:02;;;;;;;11.82;6.13;;;;;;;10.87;100.00;102241.72;5259307;28;20063;-70
2022/01/01 09:01:33;;;;;;;12.27;6.72;;;;;;;10.77;100.00;102234.22;5257281;28;20029;-70
2022/01/01 09:04:05;;;;;;;12.38;6.03;;;;;;;10.78;100.00;102233.28;5260247;28;20048;-70
2022/01/01 09:06:36;;;;;;;13.57;7.18;;;;;;;10.74;100.00;102229.06;5258277;28;20033;-70
2022/01/01 09:09:08;;;;;;;14.35;6.68;;;;;;;10.79;100.00;102218.09;5262435;28;20032;-70
2022/01/01 09:11:39;;;;;;;14.18;6.68;;;;;;;10.80;100.00;102222.50;5260328;28;20040;-70
2022/01/01 09:14:12;;;;;;;14.65;7.05;;;;;;;10.85;100.00;102219.56;5258716;28;20021;-70
2022/01/01 09:16:43;;;;;;;12.57;6.85;;;;;;;10.88;100.00;102216.75;5258871;28;20041;-70
2022/01/01 09:19:14;;;;;;;16.58;7.40;;;;;;;10.86;100.00;102227.50;5262099;28;20136;-70
2022/01/01 09:21:46;;;;;;;13.85;6.65;;;;;;;10.89;100.00;102221.13;5260695;28;20490;-70
2022/01/01 09:24:17;;;;;;;13.90;7.15;;;;;;;10.84;100.00;102218.72;5262730;28;20356;-70
2022/01/01 09:26:48;;;;;;;15.68;6.53;;;;;;;10.86;100.00;102229.31;5261351;28;20442;-70
2022/01/01 09:29:20;;;;;;;13.18;6.60;;;;;;;10.90;100.00;102225.53;5257974;28;20047;-70
2022/01/01 09:31:51;;;;;;;13.88;6.80;;;;;;;10.84;100.00;102225.88;5273466;28;20047;-70
2022/01/01 09:34:22;;;;;;;14.20;6.55;;;;;;;10.87;100.00;102220.34;5273228;28;20117;-70
2022/01/01 09:36:54;;;;;;;14.80;6.65;;;;;;;10.86;100.00;102219.50;5269806;28;20039;-70
2022/01/01 09:39:25;;;;;;;15.57;7.10;;;;;;;10.89;100.00;102219.34;5273350;28;20032;-70
2022/01/01 09:41:57;;;;;;;15.25;7.03;;;;;;;10.86;100.00;102221.31;5270738;28;20060;-70
2022/01/01 09:44:34;;;;;;;13.50;7.22;;;;;;;10.88;100.00;102219.41;5277278;28;20032;-70
2022/01/01 09:47:06;;;;;;;15.35;6.88;;;;;;;10.86;100.00;102215.97;5270966;28;20041;-70
2022/01/01 09:49:39;;;;;;;15.50;7.28;;;;;;;10.89;100.00;102207.78;5282900;28;20423;-70
2022/01/01 09:52:13;;;;;;;14.30;7.03;;;;;;;10.87;100.00;102207.84;5270547;28;20032;-70
2022/01/01 09:54:44;;;;;;;13.85;6.60;;;;;;;10.82;100.00;102201.94;5265026;28;20029;-70
2022/01/01 09:57:16;;;;;;;17.48;7.68;;;;;;;10.85;100.00;102198.22;5266819;28;20508;-70
2022/01/01 09:59:47;;;;;;;14.73;6.82;;;;;;;10.82;100.00;102203.75;5264932;28;20043;-70
2022/01/01 10:02:18;;;;;;;13.80;6.65;;;;;;;10.81;100.00;102202.00;5266530;28;20040;-70
2022/01/01 10:04:52;;;;;;;12.07;6.45;;;;;;;10.79;100.00;102192.25;5266860;28;20347;-70
2022/01/01 10:07:28;;;;;;;14.37;6.57;;;;;;;10.87;100.00;102188.31;5274260;28;20029;-70
2022/01/01 10:10:23;;;;;;;12.60;6.22;;;;;;;10.85;100.00;102196.41;5267822;28;20061;-70
2022/01/01 10:12:55;;;;;;;11.52;6.65;;;;;;;10.83;100.00;102182.28;5262699;28;20063;-70
2022/01/01 10:15:26;;;;;;;15.63;7.10;;;;;;;10.84;100.00;102178.69;5267431;28;20529;-70
2022/01/01 10:17:57;;;;;;;17.73;7.30;;;;;;;10.84;100.00;102183.16;5274710;28;20054;-70
2022/01/01 10:20:35;;;;;;;12.95;6.80;;;;;;;10.85;100.00;102182.19;5268166;28;20485;-70
2022/01/01 10:23:15;;;;;;;16.35;6.45;;;;;;;10.86;100.00;102173.25;5264876;28;20017;-70
2022/01/01 10:28:36;;;;;;;11.95;6.20;;;;;;;10.91;100.00;102166.72;5268174;28;20498;-70
2022/01/01 10:31:08;;;;;;;11.88;6.40;;;;;;;10.86;100.00;102154.56;5267384;28;20032;-70
2022/01/01 10:33:45;;;;;;;13.35;6.47;;;;;;;10.89;100.00;102167.72;5264567;28;20060;-70
2022/01/01 10:36:20;;;;;;;14.55;6.18;;;;;;;10.91;100.00;102160.47;5265541;28;20681;-70
2022/01/01 10:38:51;;;;;;;14.77;6.53;;;;;;;10.94;100.00;102155.84;5263727;28;20040;-70
2022/01/01 10:41:23;;;;;;;13.43;6.65;;;;;;;10.96;100.00;102148.59;5273286;28;20028;-70
2022/01/01 10:44:05;;;;;;;11.52;5.93;;;;;;;10.96;100.00;102158.41;5261900;28;20115;-70
2022/01/01 10:46:37;;;;;;;10.55;6.18;;;;;;;10.99;100.00;102158.25;5259259;28;20592;-70
2022/01/01 10:49:52;;;;;;;12.23;5.90;;;;;;;11.08;100.00;102146.16;5258219;28;20057;-70
2022/01/01 10:52:28;;;;;;;13.80;5.88;;;;;;;11.19;100.00;102127.72;5268783;28;20037;-70
2022/01/01 10:55:01;;;;;;;10.77;5.97;;;;;;;11.26;100.00;102141.59;5260647;28;20044;-70
2022/01/01 10:57:41;;;;;;;11.55;6.40;;;;;;;11.29;100.00;102139.56;5264194;28;20083;-70
2022/01/01 11:00:13;;;;;;;13.63;5.90;;;;;;;11.36;100.00;102121.38;5272990;28;20032;-70
2022/01/01 11:02:48;;;;;;;10.45;5.85;;;;;;;11.39;100.00;102123.88;5268026;28;21577;-70
2022/01/01 11:05:33;;;;;;;12.23;5.57;;;;;;;11.42;100.00;102133.50;5266707;28;20440;-70
2022/01/01 11:08:07;;;;;;;12.32;6.05;;;;;;;11.33;100.00;102114.41;5266490;28;20915;-70
2022/01/01 11:10:39;;;;;;;12.27;5.38;;;;;;;11.38;100.00;102131.00;5259033;28;20602;-70
2022/01/01 11:13:11;;;;;;;13.40;5.90;;;;;;;11.43;100.00;102132.53;5266887;28;20037;-69
2022/01/01 11:15:42;;;;;;;10.32;5.82;;;;;;;11.43;100.00;102127.19;5270182;28;20024;-69
2022/01/01 11:18:14;;;;;;;9.70;5.07;;;;;;;11.41;100.00;102124.66;5269447;28;20536;-69
2022/01/01 11:20:46;;;;;;;9.73;5.25;;;;;;;11.44;100.00;102127.13;5267836;28;20032;-69
2022/01/01 11:23:19;;;;;;;9.10;4.90;;;;;;;11.44;100.00;102128.94;5264714;28;20033;-69
2022/01/01 11:25:51;;;;;;;8.85;4.88;;;;;;;11.41;100.00;102121.09;5270677;28;20052;-70
2022/01/01 11:28:23;;;;;;;10.18;5.10;;;;;;;11.45;100.00;102106.59;5267121;28;20494;-70
2022/01/01 11:30:57;;;;;;;9.10;4.90;;;;;;;11.50;100.00;102112.53;5270482;28;20115;-70
2022/01/01 11:33:32;;;;;;;9.82;5.07;;;;;;;11.62;100.00;102103.78;5273308;28;20020;-70
2022/01/01 11:36:03;;;;;;;8.98;4.45;;;;;;;11.75;100.00;102101.19;5266675;28;20067;-70